sensor_id;sensor_type;location;lat;lon;timestamp;temperature;humidity
27114;DHT22;14648;49.730;8.614;2023-11-21T00:01:58;10.40;67.00
27114;DHT22;14648;49.730;8.614;2023-11-21T00:04:24;10.40;67.10
27114;DHT22;14648;49.730;8.614;2023-11-21T00:06:51;10.30;67.10
27114;DHT22;14648;49.730;8.614;2023-11-21T00:09:17;10.30;67.20
27114;DHT22;14648;49.730;8.614;2023-11-21T00:11:43;10.30;67.30
27114;DHT22;14648;49.730;8.614;2023-11-21T00:14:11;10.30;67.30
27114;DHT22;14648;49.730;8.614;2023-11-21T00:16:36;10.30;67.30
27114;DHT22;14648;49.730;8.614;2023-11-21T00:19:05;10.30;67.30
27114;DHT22;14648;49.730;8.614;2023-11-21T00:21:31;10.30;67.40
27114;DHT22;14648;49.730;8.614;2023-11-21T00:23:56;10.30;67.50
27114;DHT22;14648;49.730;8.614;2023-11-21T00:26:22;10.30;67.50
27114;DHT22;14648;49.730;8.614;2023-11-21T00:28:49;10.20;67.40
27114;DHT22;14648;49.730;8.614;2023-11-21T00:31:16;10.20;67.40
27114;DHT22;14648;49.730;8.614;2023-11-21T00:33:42;10.20;67.50
27114;DHT22;14648;49.730;8.614;2023-11-21T00:36:09;10.20;67.50
27114;DHT22;14648;49.730;8.614;2023-11-21T00:38:41;10.20;67.60
27114;DHT22;14648;49.730;8.614;2023-11-21T00:41:07;10.20;67.60
27114;DHT22;14648;49.730;8.614;2023-11-21T00:43:36;10.20;67.60
27114;DHT22;14648;49.730;8.614;2023-11-21T00:46:08;10.20;67.70
27114;DHT22;14648;49.730;8.614;2023-11-21T00:48:34;10.20;67.70
27114;DHT22;14648;49.730;8.614;2023-11-21T00:51:00;10.20;67.70
27114;DHT22;14648;49.730;8.614;2023-11-21T00:53:26;10.20;67.70
27114;DHT22;14648;49.730;8.614;2023-11-21T00:55:52;10.20;67.70
27114;DHT22;14648;49.730;8.614;2023-11-21T00:58:23;10.20;67.80
27114;DHT22;14648;49.730;8.614;2023-11-21T01:00:50;10.20;67.80
27114;DHT22;14648;49.730;8.614;2023-11-21T01:03:16;10.20;67.90
27114;DHT22;14648;49.730;8.614;2023-11-21T01:05:41;10.30;67.90
27114;DHT22;14648;49.730;8.614;2023-11-21T01:08:07;10.20;67.80
27114;DHT22;14648;49.730;8.614;2023-11-21T01:10:33;10.30;68.00
27114;DHT22;14648;49.730;8.614;2023-11-21T01:13:02;10.30;67.90
27114;DHT22;14648;49.730;8.614;2023-11-21T01:15:30;10.30;67.90
27114;DHT22;14648;49.730;8.614;2023-11-21T01:17:56;10.30;68.00
27114;DHT22;14648;49.730;8.614;2023-11-21T01:20:22;10.40;68.10
27114;DHT22;14648;49.730;8.614;2023-11-21T01:22:48;10.40;68.80
27114;DHT22;14648;49.730;8.614;2023-11-21T01:25:14;10.30;68.10
27114;DHT22;14648;49.730;8.614;2023-11-21T01:27:42;10.40;68.10
27114;DHT22;14648;49.730;8.614;2023-11-21T01:30:09;10.40;68.10
27114;DHT22;14648;49.730;8.614;2023-11-21T01:32:38;10.30;68.20
27114;DHT22;14648;49.730;8.614;2023-11-21T01:35:05;10.30;68.20
27114;DHT22;14648;49.730;8.614;2023-11-21T01:37:35;10.30;68.30
27114;DHT22;14648;49.730;8.614;2023-11-21T01:40:02;10.30;68.50
27114;DHT22;14648;49.730;8.614;2023-11-21T01:42:30;10.40;68.50
27114;DHT22;14648;49.730;8.614;2023-11-21T01:44:56;10.40;68.60
27114;DHT22;14648;49.730;8.614;2023-11-21T01:47:22;10.40;68.60
27114;DHT22;14648;49.730;8.614;2023-11-21T01:49:48;10.40;68.60
27114;DHT22;14648;49.730;8.614;2023-11-21T01:52:13;10.40;68.70
27114;DHT22;14648;49.730;8.614;2023-11-21T01:54:41;10.40;68.60
27114;DHT22;14648;49.730;8.614;2023-11-21T01:57:07;10.40;68.60
27114;DHT22;14648;49.730;8.614;2023-11-21T01:59:35;10.40;68.70
27114;DHT22;14648;49.730;8.614;2023-11-21T02:02:05;10.40;68.70
27114;DHT22;14648;49.730;8.614;2023-11-21T02:04:32;10.30;68.80
27114;DHT22;14648;49.730;8.614;2023-11-21T02:06:59;10.30;68.80
27114;DHT22;14648;49.730;8.614;2023-11-21T02:09:26;10.30;68.90
27114;DHT22;14648;49.730;8.614;2023-11-21T02:11:53;10.30;68.90
27114;DHT22;14648;49.730;8.614;2023-11-21T02:14:20;10.30;68.90
27114;DHT22;14648;49.730;8.614;2023-11-21T02:16:51;10.30;68.90
27114;DHT22;14648;49.730;8.614;2023-11-21T02:19:19;10.30;69.00
27114;DHT22;14648;49.730;8.614;2023-11-21T02:21:49;10.30;68.90
27114;DHT22;14648;49.730;8.614;2023-11-21T02:24:21;10.30;69.10
27114;DHT22;14648;49.730;8.614;2023-11-21T02:26:48;10.30;69.00
27114;DHT22;14648;49.730;8.614;2023-11-21T02:29:17;10.30;68.90
27114;DHT22;14648;49.730;8.614;2023-11-21T02:31:44;10.30;69.00
27114;DHT22;14648;49.730;8.614;2023-11-21T02:34:17;10.40;69.00
27114;DHT22;14648;49.730;8.614;2023-11-21T02:36:44;10.40;69.00
27114;DHT22;14648;49.730;8.614;2023-11-21T02:39:13;10.40;69.00
27114;DHT22;14648;49.730;8.614;2023-11-21T02:41:38;10.40;69.00
27114;DHT22;14648;49.730;8.614;2023-11-21T02:44:08;10.50;69.10
27114;DHT22;14648;49.730;8.614;2023-11-21T02:46:35;10.50;69.10
27114;DHT22;14648;49.730;8.614;2023-11-21T02:49:02;10.40;69.00
27114;DHT22;14648;49.730;8.614;2023-11-21T02:51:29;10.50;69.20
27114;DHT22;14648;49.730;8.614;2023-11-21T02:53:56;10.50;69.20
27114;DHT22;14648;49.730;8.614;2023-11-21T02:56:26;10.50;69.30
27114;DHT22;14648;49.730;8.614;2023-11-21T02:58:52;10.50;69.20
27114;DHT22;14648;49.730;8.614;2023-11-21T03:01:18;10.50;69.20
27114;DHT22;14648;49.730;8.614;2023-11-21T03:03:43;10.60;69.30
27114;DHT22;14648;49.730;8.614;2023-11-21T03:06:09;10.50;69.30
27114;DHT22;14648;49.730;8.614;2023-11-21T03:08:35;10.50;69.40
27114;DHT22;14648;49.730;8.614;2023-11-21T03:11:01;10.50;69.50
27114;DHT22;14648;49.730;8.614;2023-11-21T03:13:29;10.60;69.50
27114;DHT22;14648;49.730;8.614;2023-11-21T03:15:54;10.60;69.50
27114;DHT22;14648;49.730;8.614;2023-11-21T03:18:21;10.60;69.50
27114;DHT22;14648;49.730;8.614;2023-11-21T03:20:53;10.60;69.60
27114;DHT22;14648;49.730;8.614;2023-11-21T03:23:18;10.60;69.70
27114;DHT22;14648;49.730;8.614;2023-11-21T03:25:44;10.50;69.70
27114;DHT22;14648;49.730;8.614;2023-11-21T03:28:10;10.50;69.80
27114;DHT22;14648;49.730;8.614;2023-11-21T03:30:36;10.50;69.90
27114;DHT22;14648;49.730;8.614;2023-11-21T03:33:01;10.50;69.90
27114;DHT22;14648;49.730;8.614;2023-11-21T03:35:27;10.50;69.90
27114;DHT22;14648;49.730;8.614;2023-11-21T03:37:53;10.50;70.00
27114;DHT22;14648;49.730;8.614;2023-11-21T03:40:19;10.50;70.00
27114;DHT22;14648;49.730;8.614;2023-11-21T03:42:46;10.50;70.00
27114;DHT22;14648;49.730;8.614;2023-11-21T03:45:12;10.50;70.00
27114;DHT22;14648;49.730;8.614;2023-11-21T03:47:42;10.50;70.00
27114;DHT22;14648;49.730;8.614;2023-11-21T03:50:08;10.50;70.00
27114;DHT22;14648;49.730;8.614;2023-11-21T03:52:35;10.50;70.00
27114;DHT22;14648;49.730;8.614;2023-11-21T03:55:01;10.50;70.10
27114;DHT22;14648;49.730;8.614;2023-11-21T03:57:27;10.50;70.00
27114;DHT22;14648;49.730;8.614;2023-11-21T03:59:53;10.50;70.00
27114;DHT22;14648;49.730;8.614;2023-11-21T04:02:19;10.50;70.10
27114;DHT22;14648;49.730;8.614;2023-11-21T04:04:45;10.50;70.20
27114;DHT22;14648;49.730;8.614;2023-11-21T04:07:11;10.50;70.10
27114;DHT22;14648;49.730;8.614;2023-11-21T04:09:39;10.60;70.10
27114;DHT22;14648;49.730;8.614;2023-11-21T04:12:07;10.50;70.20
27114;DHT22;14648;49.730;8.614;2023-11-21T04:14:34;10.50;70.20
27114;DHT22;14648;49.730;8.614;2023-11-21T04:17:01;10.50;70.20
27114;DHT22;14648;49.730;8.614;2023-11-21T04:19:27;10.50;70.30
27114;DHT22;14648;49.730;8.614;2023-11-21T04:21:52;10.50;70.40
27114;DHT22;14648;49.730;8.614;2023-11-21T04:24:18;10.60;70.30
27114;DHT22;14648;49.730;8.614;2023-11-21T04:26:44;10.60;70.30
27114;DHT22;14648;49.730;8.614;2023-11-21T04:29:10;10.60;70.20
27114;DHT22;14648;49.730;8.614;2023-11-21T04:31:36;10.60;70.20
27114;DHT22;14648;49.730;8.614;2023-11-21T04:34:02;10.70;70.30
27114;DHT22;14648;49.730;8.614;2023-11-21T04:36:30;10.70;70.30
27114;DHT22;14648;49.730;8.614;2023-11-21T04:39:00;10.70;70.40
27114;DHT22;14648;49.730;8.614;2023-11-21T04:41:26;10.70;70.40
27114;DHT22;14648;49.730;8.614;2023-11-21T04:43:51;10.70;70.40
27114;DHT22;14648;49.730;8.614;2023-11-21T04:46:17;10.70;70.50
27114;DHT22;14648;49.730;8.614;2023-11-21T04:48:43;10.70;70.50
27114;DHT22;14648;49.730;8.614;2023-11-21T04:51:09;10.80;70.50
27114;DHT22;14648;49.730;8.614;2023-11-21T04:53:37;10.70;70.50
27114;DHT22;14648;49.730;8.614;2023-11-21T04:56:02;10.80;70.40
27114;DHT22;14648;49.730;8.614;2023-11-21T04:58:28;10.80;70.40
27114;DHT22;14648;49.730;8.614;2023-11-21T05:00:55;10.90;70.40
27114;DHT22;14648;49.730;8.614;2023-11-21T05:03:21;10.90;70.40
27114;DHT22;14648;49.730;8.614;2023-11-21T05:05:49;10.90;70.50
27114;DHT22;14648;49.730;8.614;2023-11-21T05:08:14;10.90;70.40
27114;DHT22;14648;49.730;8.614;2023-11-21T05:10:40;10.90;70.50
27114;DHT22;14648;49.730;8.614;2023-11-21T05:13:06;11.00;70.40
27114;DHT22;14648;49.730;8.614;2023-11-21T05:15:36;10.90;70.50
27114;DHT22;14648;49.730;8.614;2023-11-21T05:18:03;11.00;70.50
27114;DHT22;14648;49.730;8.614;2023-11-21T05:20:28;11.00;70.50
27114;DHT22;14648;49.730;8.614;2023-11-21T05:22:54;11.00;70.50
27114;DHT22;14648;49.730;8.614;2023-11-21T05:25:20;11.10;70.60
27114;DHT22;14648;49.730;8.614;2023-11-21T05:27:46;11.00;70.50
27114;DHT22;14648;49.730;8.614;2023-11-21T05:30:13;11.10;70.60
27114;DHT22;14648;49.730;8.614;2023-11-21T05:32:40;11.10;70.60
27114;DHT22;14648;49.730;8.614;2023-11-21T05:35:09;11.00;70.50
27114;DHT22;14648;49.730;8.614;2023-11-21T05:37:38;11.10;70.60
27114;DHT22;14648;49.730;8.614;2023-11-21T05:40:08;11.10;70.50
27114;DHT22;14648;49.730;8.614;2023-11-21T05:42:35;11.10;70.60
27114;DHT22;14648;49.730;8.614;2023-11-21T05:45:01;11.10;70.50
27114;DHT22;14648;49.730;8.614;2023-11-21T05:47:37;11.00;70.50
27114;DHT22;14648;49.730;8.614;2023-11-21T05:50:06;11.10;70.60
27114;DHT22;14648;49.730;8.614;2023-11-21T05:52:44;11.00;70.50
27114;DHT22;14648;49.730;8.614;2023-11-21T05:55:11;11.10;70.60
27114;DHT22;14648;49.730;8.614;2023-11-21T05:57:37;11.10;70.70
27114;DHT22;14648;49.730;8.614;2023-11-21T06:00:06;11.10;70.60
27114;DHT22;14648;49.730;8.614;2023-11-21T06:02:49;11.10;70.60
27114;DHT22;14648;49.730;8.614;2023-11-21T06:05:26;11.10;70.60
27114;DHT22;14648;49.730;8.614;2023-11-21T06:07:53;11.10;70.60
27114;DHT22;14648;49.730;8.614;2023-11-21T06:10:20;11.10;70.60
27114;DHT22;14648;49.730;8.614;2023-11-21T06:12:47;11.10;70.70
27114;DHT22;14648;49.730;8.614;2023-11-21T06:15:13;11.10;70.70
27114;DHT22;14648;49.730;8.614;2023-11-21T06:17:40;11.10;70.70
27114;DHT22;14648;49.730;8.614;2023-11-21T06:20:08;11.10;70.70
27114;DHT22;14648;49.730;8.614;2023-11-21T06:22:40;11.10;70.70
27114;DHT22;14648;49.730;8.614;2023-11-21T06:25:10;11.00;70.70
27114;DHT22;14648;49.730;8.614;2023-11-21T06:27:41;11.00;70.60
27114;DHT22;14648;49.730;8.614;2023-11-21T06:30:08;11.00;70.70
27114;DHT22;14648;49.730;8.614;2023-11-21T06:32:36;11.00;71.00
27114;DHT22;14648;49.730;8.614;2023-11-21T06:35:03;11.00;70.70
27114;DHT22;14648;49.730;8.614;2023-11-21T06:37:30;11.00;70.70
27114;DHT22;14648;49.730;8.614;2023-11-21T06:39:56;11.00;70.60
27114;DHT22;14648;49.730;8.614;2023-11-21T06:42:24;11.00;70.70
27114;DHT22;14648;49.730;8.614;2023-11-21T06:44:54;11.00;70.60
27114;DHT22;14648;49.730;8.614;2023-11-21T06:47:25;11.00;70.60
27114;DHT22;14648;49.730;8.614;2023-11-21T06:49:52;10.90;70.70
27114;DHT22;14648;49.730;8.614;2023-11-21T06:52:19;10.90;70.80
27114;DHT22;14648;49.730;8.614;2023-11-21T06:54:45;10.90;70.80
27114;DHT22;14648;49.730;8.614;2023-11-21T06:57:11;10.90;70.80
27114;DHT22;14648;49.730;8.614;2023-11-21T06:59:37;10.90;70.80
27114;DHT22;14648;49.730;8.614;2023-11-21T07:02:03;10.90;70.80
27114;DHT22;14648;49.730;8.614;2023-11-21T07:04:32;10.80;70.70
27114;DHT22;14648;49.730;8.614;2023-11-21T07:06:58;10.80;70.80
27114;DHT22;14648;49.730;8.614;2023-11-21T07:09:24;10.80;70.80
27114;DHT22;14648;49.730;8.614;2023-11-21T07:11:51;10.80;70.80
27114;DHT22;14648;49.730;8.614;2023-11-21T07:14:17;10.80;70.90
27114;DHT22;14648;49.730;8.614;2023-11-21T07:16:45;10.70;70.90
27114;DHT22;14648;49.730;8.614;2023-11-21T07:19:11;10.70;70.90
27114;DHT22;14648;49.730;8.614;2023-11-21T07:21:38;10.70;70.90
27114;DHT22;14648;49.730;8.614;2023-11-21T07:24:07;10.70;71.00
27114;DHT22;14648;49.730;8.614;2023-11-21T07:26:34;10.60;70.90
27114;DHT22;14648;49.730;8.614;2023-11-21T07:29:03;10.60;70.90
27114;DHT22;14648;49.730;8.614;2023-11-21T07:31:30;10.60;71.00
27114;DHT22;14648;49.730;8.614;2023-11-21T07:33:56;10.60;71.00
27114;DHT22;14648;49.730;8.614;2023-11-21T07:36:23;10.60;71.00
27114;DHT22;14648;49.730;8.614;2023-11-21T07:38:49;10.60;71.00
27114;DHT22;14648;49.730;8.614;2023-11-21T07:41:16;10.60;71.00
27114;DHT22;14648;49.730;8.614;2023-11-21T07:43:43;10.60;71.00
27114;DHT22;14648;49.730;8.614;2023-11-21T07:46:10;10.60;71.00
27114;DHT22;14648;49.730;8.614;2023-11-21T07:48:38;10.60;71.00
27114;DHT22;14648;49.730;8.614;2023-11-21T07:51:04;10.60;71.00
27114;DHT22;14648;49.730;8.614;2023-11-21T07:53:30;10.60;71.00
27114;DHT22;14648;49.730;8.614;2023-11-21T07:55:56;10.60;71.10
27114;DHT22;14648;49.730;8.614;2023-11-21T07:58:23;10.50;71.10
27114;DHT22;14648;49.730;8.614;2023-11-21T08:00:49;10.60;71.20
27114;DHT22;14648;49.730;8.614;2023-11-21T08:03:15;10.60;71.10
27114;DHT22;14648;49.730;8.614;2023-11-21T08:05:44;10.60;71.10
27114;DHT22;14648;49.730;8.614;2023-11-21T08:08:10;10.60;71.20
27114;DHT22;14648;49.730;8.614;2023-11-21T08:10:36;10.60;71.20
27114;DHT22;14648;49.730;8.614;2023-11-21T08:13:03;10.60;71.00
27114;DHT22;14648;49.730;8.614;2023-11-21T08:15:29;10.70;71.20
27114;DHT22;14648;49.730;8.614;2023-11-21T08:17:57;10.70;71.20
27114;DHT22;14648;49.730;8.614;2023-11-21T08:20:24;10.60;71.10
27114;DHT22;14648;49.730;8.614;2023-11-21T08:22:50;10.60;71.10
27114;DHT22;14648;49.730;8.614;2023-11-21T08:25:18;10.70;71.20
27114;DHT22;14648;49.730;8.614;2023-11-21T08:27:45;10.70;71.20
27114;DHT22;14648;49.730;8.614;2023-11-21T08:30:12;10.70;71.20
27114;DHT22;14648;49.730;8.614;2023-11-21T08:32:39;10.70;71.20
27114;DHT22;14648;49.730;8.614;2023-11-21T08:35:07;10.70;71.30
27114;DHT22;14648;49.730;8.614;2023-11-21T08:37:33;10.70;71.30
27114;DHT22;14648;49.730;8.614;2023-11-21T08:40:03;10.70;71.30
27114;DHT22;14648;49.730;8.614;2023-11-21T08:42:34;10.70;71.30
27114;DHT22;14648;49.730;8.614;2023-11-21T08:45:01;10.70;71.30
27114;DHT22;14648;49.730;8.614;2023-11-21T08:47:27;10.70;71.40
27114;DHT22;14648;49.730;8.614;2023-11-21T08:49:53;10.70;71.40
27114;DHT22;14648;49.730;8.614;2023-11-21T08:52:19;10.70;71.40
27114;DHT22;14648;49.730;8.614;2023-11-21T08:54:48;10.70;71.50
27114;DHT22;14648;49.730;8.614;2023-11-21T08:57:24;10.70;71.50
27114;DHT22;14648;49.730;8.614;2023-11-21T08:59:50;10.70;71.50
27114;DHT22;14648;49.730;8.614;2023-11-21T09:02:21;10.70;71.50
27114;DHT22;14648;49.730;8.614;2023-11-21T09:04:49;10.70;71.50
27114;DHT22;14648;49.730;8.614;2023-11-21T09:07:16;10.70;71.50
27114;DHT22;14648;49.730;8.614;2023-11-21T09:09:41;10.80;71.50
27114;DHT22;14648;49.730;8.614;2023-11-21T09:12:07;10.70;71.50
27114;DHT22;14648;49.730;8.614;2023-11-21T09:14:37;10.80;71.60
27114;DHT22;14648;49.730;8.614;2023-11-21T09:17:04;10.80;71.60
27114;DHT22;14648;49.730;8.614;2023-11-21T09:19:37;10.80;71.60
27114;DHT22;14648;49.730;8.614;2023-11-21T09:22:03;10.80;71.60
27114;DHT22;14648;49.730;8.614;2023-11-21T09:24:30;10.80;71.50
27114;DHT22;14648;49.730;8.614;2023-11-21T09:26:57;10.80;71.50
27114;DHT22;14648;49.730;8.614;2023-11-21T09:29:23;10.80;71.60
27114;DHT22;14648;49.730;8.614;2023-11-21T09:31:49;10.80;71.50
27114;DHT22;14648;49.730;8.614;2023-11-21T09:34:16;10.90;71.70
27114;DHT22;14648;49.730;8.614;2023-11-21T09:36:45;10.90;71.60
27114;DHT22;14648;49.730;8.614;2023-11-21T09:39:11;10.90;71.60
27114;DHT22;14648;49.730;8.614;2023-11-21T09:41:54;10.90;71.60
27114;DHT22;14648;49.730;8.614;2023-11-21T09:44:46;10.90;71.70
27114;DHT22;14648;49.730;8.614;2023-11-21T09:47:21;10.90;71.70
27114;DHT22;14648;49.730;8.614;2023-11-21T09:49:47;10.90;71.60
27114;DHT22;14648;49.730;8.614;2023-11-21T09:52:25;10.90;71.60
27114;DHT22;14648;49.730;8.614;2023-11-21T09:54:52;10.90;71.70
27114;DHT22;14648;49.730;8.614;2023-11-21T09:57:23;10.90;71.60
27114;DHT22;14648;49.730;8.614;2023-11-21T09:59:51;10.90;71.70
27114;DHT22;14648;49.730;8.614;2023-11-21T10:02:28;10.90;71.70
27114;DHT22;14648;49.730;8.614;2023-11-21T10:04:56;10.90;71.70
27114;DHT22;14648;49.730;8.614;2023-11-21T10:07:22;10.90;71.80
27114;DHT22;14648;49.730;8.614;2023-11-21T10:09:51;10.90;71.80
27114;DHT22;14648;49.730;8.614;2023-11-21T10:12:17;11.00;71.80
27114;DHT22;14648;49.730;8.614;2023-11-21T10:14:48;11.00;71.80
27114;DHT22;14648;49.730;8.614;2023-11-21T10:17:15;11.00;71.80
27114;DHT22;14648;49.730;8.614;2023-11-21T10:19:46;11.00;71.80
27114;DHT22;14648;49.730;8.614;2023-11-21T10:22:15;11.10;72.00
27114;DHT22;14648;49.730;8.614;2023-11-21T10:24:42;11.10;71.90
27114;DHT22;14648;49.730;8.614;2023-11-21T10:27:09;11.10;71.80
27114;DHT22;14648;49.730;8.614;2023-11-21T10:29:34;11.10;71.80
27114;DHT22;14648;49.730;8.614;2023-11-21T10:32:04;11.10;71.80
27114;DHT22;14648;49.730;8.614;2023-11-21T10:34:31;11.10;71.80
27114;DHT22;14648;49.730;8.614;2023-11-21T10:36:57;11.10;71.80
27114;DHT22;14648;49.730;8.614;2023-11-21T10:39:24;11.10;71.90
27114;DHT22;14648;49.730;8.614;2023-11-21T10:41:54;11.10;72.00
27114;DHT22;14648;49.730;8.614;2023-11-21T10:44:21;11.10;71.90
27114;DHT22;14648;49.730;8.614;2023-11-21T10:46:50;11.20;71.90
27114;DHT22;14648;49.730;8.614;2023-11-21T10:49:24;11.20;71.80
27114;DHT22;14648;49.730;8.614;2023-11-21T10:51:52;11.20;71.90
27114;DHT22;14648;49.730;8.614;2023-11-21T10:54:23;11.20;71.90
27114;DHT22;14648;49.730;8.614;2023-11-21T10:56:55;11.20;71.90
27114;DHT22;14648;49.730;8.614;2023-11-21T10:59:22;11.20;71.90
27114;DHT22;14648;49.730;8.614;2023-11-21T11:01:50;11.30;72.10
27114;DHT22;14648;49.730;8.614;2023-11-21T11:04:22;11.30;72.00
27114;DHT22;14648;49.730;8.614;2023-11-21T11:07:03;11.30;72.20
27114;DHT22;14648;49.730;8.614;2023-11-21T11:09:31;11.40;72.10
27114;DHT22;14648;49.730;8.614;2023-11-21T11:12:00;11.40;72.00
27114;DHT22;14648;49.730;8.614;2023-11-21T11:14:27;11.40;72.00
27114;DHT22;14648;49.730;8.614;2023-11-21T11:16:54;11.40;71.90
27114;DHT22;14648;49.730;8.614;2023-11-21T11:19:21;11.40;72.00
27114;DHT22;14648;49.730;8.614;2023-11-21T11:25:18;11.50;72.10
27114;DHT22;14648;49.730;8.614;2023-11-21T11:28:03;11.50;72.10
27114;DHT22;14648;49.730;8.614;2023-11-21T11:33:50;11.40;72.00
27114;DHT22;14648;49.730;8.614;2023-11-21T11:36:44;11.50;72.10
27114;DHT22;14648;49.730;8.614;2023-11-21T11:39:30;11.50;72.10
27114;DHT22;14648;49.730;8.614;2023-11-21T11:42:02;11.50;72.10
27114;DHT22;14648;49.730;8.614;2023-11-21T11:47:21;11.50;72.10
27114;DHT22;14648;49.730;8.614;2023-11-21T11:50:10;11.50;72.20
27114;DHT22;14648;49.730;8.614;2023-11-21T11:55:14;11.60;72.80
27114;DHT22;14648;49.730;8.614;2023-11-21T11:57:45;11.80;72.90
27114;DHT22;14648;49.730;8.614;2023-11-21T12:00:16;12.00;72.90
27114;DHT22;14648;49.730;8.614;2023-11-21T12:02:52;12.30;72.90
27114;DHT22;14648;49.730;8.614;2023-11-21T12:05:26;12.50;73.20
27114;DHT22;14648;49.730;8.614;2023-11-21T12:07:55;12.80;73.50
27114;DHT22;14648;49.730;8.614;2023-11-21T12:10:44;13.20;73.50
27114;DHT22;14648;49.730;8.614;2023-11-21T12:13:10;13.50;73.50
27114;DHT22;14648;49.730;8.614;2023-11-21T12:15:37;13.80;73.20
27114;DHT22;14648;49.730;8.614;2023-11-21T12:18:04;14.00;72.90
27114;DHT22;14648;49.730;8.614;2023-11-21T12:20:32;14.10;72.70
27114;DHT22;14648;49.730;8.614;2023-11-21T12:23:04;14.10;72.80
27114;DHT22;14648;49.730;8.614;2023-11-21T12:25:31;14.10;72.80
27114;DHT22;14648;49.730;8.614;2023-11-21T12:27:59;14.00;72.80
27114;DHT22;14648;49.730;8.614;2023-11-21T12:30:27;14.00;72.70
27114;DHT22;14648;49.730;8.614;2023-11-21T12:32:56;13.90;72.60
27114;DHT22;14648;49.730;8.614;2023-11-21T12:35:30;13.80;72.60
27114;DHT22;14648;49.730;8.614;2023-11-21T12:38:00;13.80;72.60
27114;DHT22;14648;49.730;8.614;2023-11-21T12:40:28;13.70;72.70
27114;DHT22;14648;49.730;8.614;2023-11-21T12:42:59;13.70;72.50
27114;DHT22;14648;49.730;8.614;2023-11-21T12:45:27;13.60;72.30
27114;DHT22;14648;49.730;8.614;2023-11-21T12:47:54;13.50;72.30
27114;DHT22;14648;49.730;8.614;2023-11-21T12:50:35;13.40;72.30
27114;DHT22;14648;49.730;8.614;2023-11-21T12:53:20;13.50;72.30
27114;DHT22;14648;49.730;8.614;2023-11-21T12:55:46;13.40;72.10
27114;DHT22;14648;49.730;8.614;2023-11-21T12:58:15;13.40;72.00
27114;DHT22;14648;49.730;8.614;2023-11-21T13:00:47;13.30;72.00
27114;DHT22;14648;49.730;8.614;2023-11-21T13:03:16;13.30;71.90
27114;DHT22;14648;49.730;8.614;2023-11-21T13:05:46;13.30;71.80
27114;DHT22;14648;49.730;8.614;2023-11-21T13:08:16;13.20;71.70
27114;DHT22;14648;49.730;8.614;2023-11-21T13:10:45;13.20;71.50
27114;DHT22;14648;49.730;8.614;2023-11-21T13:13:13;13.10;71.40
27114;DHT22;14648;49.730;8.614;2023-11-21T13:15:48;13.00;71.20
27114;DHT22;14648;49.730;8.614;2023-11-21T13:18:14;13.00;71.10
27114;DHT22;14648;49.730;8.614;2023-11-21T13:20:41;12.90;71.70
27114;DHT22;14648;49.730;8.614;2023-11-21T13:23:09;12.90;70.90
27114;DHT22;14648;49.730;8.614;2023-11-21T13:25:39;12.80;70.70
27114;DHT22;14648;49.730;8.614;2023-11-21T13:28:08;12.80;70.70
27114;DHT22;14648;49.730;8.614;2023-11-21T13:30:35;12.80;70.60
27114;DHT22;14648;49.730;8.614;2023-11-21T13:33:04;12.70;70.60
27114;DHT22;14648;49.730;8.614;2023-11-21T13:35:39;12.70;70.50
27114;DHT22;14648;49.730;8.614;2023-11-21T13:38:14;12.70;70.50
27114;DHT22;14648;49.730;8.614;2023-11-21T13:40:47;12.60;70.30
27114;DHT22;14648;49.730;8.614;2023-11-21T13:43:16;12.60;70.20
27114;DHT22;14648;49.730;8.614;2023-11-21T13:45:44;12.60;70.20
27114;DHT22;14648;49.730;8.614;2023-11-21T13:48:12;12.60;70.10
27114;DHT22;14648;49.730;8.614;2023-11-21T13:50:45;12.60;70.00
27114;DHT22;14648;49.730;8.614;2023-11-21T13:53:34;12.50;70.00
27114;DHT22;14648;49.730;8.614;2023-11-21T13:56:03;12.50;69.80
27114;DHT22;14648;49.730;8.614;2023-11-21T13:58:29;12.50;69.70
27114;DHT22;14648;49.730;8.614;2023-11-21T14:01:10;12.50;69.70
27114;DHT22;14648;49.730;8.614;2023-11-21T14:04:03;12.40;69.50
27114;DHT22;14648;49.730;8.614;2023-11-21T14:06:42;12.40;69.50
27114;DHT22;14648;49.730;8.614;2023-11-21T14:09:16;12.40;69.50
27114;DHT22;14648;49.730;8.614;2023-11-21T14:11:52;12.40;69.50
27114;DHT22;14648;49.730;8.614;2023-11-21T14:14:21;12.40;69.50
27114;DHT22;14648;49.730;8.614;2023-11-21T14:16:49;12.40;69.50
27114;DHT22;14648;49.730;8.614;2023-11-21T14:19:16;12.30;69.50
27114;DHT22;14648;49.730;8.614;2023-11-21T14:21:46;12.30;69.40
27114;DHT22;14648;49.730;8.614;2023-11-21T14:24:14;12.30;69.40
27114;DHT22;14648;49.730;8.614;2023-11-21T14:26:43;12.30;69.40
27114;DHT22;14648;49.730;8.614;2023-11-21T14:29:14;12.30;69.40
27114;DHT22;14648;49.730;8.614;2023-11-21T14:31:45;12.30;69.30
27114;DHT22;14648;49.730;8.614;2023-11-21T14:34:11;12.20;69.20
27114;DHT22;14648;49.730;8.614;2023-11-21T14:36:38;12.20;69.20
27114;DHT22;14648;49.730;8.614;2023-11-21T14:39:05;12.20;69.20
27114;DHT22;14648;49.730;8.614;2023-11-21T14:41:35;12.20;69.00
27114;DHT22;14648;49.730;8.614;2023-11-21T14:44:02;12.20;69.00
27114;DHT22;14648;49.730;8.614;2023-11-21T14:46:29;12.20;69.00
27114;DHT22;14648;49.730;8.614;2023-11-21T14:48:55;12.10;68.90
27114;DHT22;14648;49.730;8.614;2023-11-21T14:51:47;12.10;68.90
27114;DHT22;14648;49.730;8.614;2023-11-21T14:54:31;12.10;68.90
27114;DHT22;14648;49.730;8.614;2023-11-21T14:57:11;12.00;68.70
27114;DHT22;14648;49.730;8.614;2023-11-21T14:59:49;12.00;68.70
27114;DHT22;14648;49.730;8.614;2023-11-21T15:02:23;11.90;68.70
27114;DHT22;14648;49.730;8.614;2023-11-21T15:05:09;11.90;68.70
27114;DHT22;14648;49.730;8.614;2023-11-21T15:07:40;11.90;68.60
27114;DHT22;14648;49.730;8.614;2023-11-21T15:10:07;11.80;68.50
27114;DHT22;14648;49.730;8.614;2023-11-21T15:12:38;11.80;68.50
27114;DHT22;14648;49.730;8.614;2023-11-21T15:15:05;11.70;68.50
27114;DHT22;14648;49.730;8.614;2023-11-21T15:17:36;11.70;68.50
27114;DHT22;14648;49.730;8.614;2023-11-21T15:20:03;11.70;68.50
27114;DHT22;14648;49.730;8.614;2023-11-21T15:22:32;11.70;68.50
27114;DHT22;14648;49.730;8.614;2023-11-21T15:24:58;11.70;68.50
27114;DHT22;14648;49.730;8.614;2023-11-21T15:27:24;11.70;68.40
27114;DHT22;14648;49.730;8.614;2023-11-21T15:29:52;11.70;68.40
27114;DHT22;14648;49.730;8.614;2023-11-21T15:32:19;11.60;68.40
27114;DHT22;14648;49.730;8.614;2023-11-21T15:34:44;11.70;68.50
27114;DHT22;14648;49.730;8.614;2023-11-21T15:37:12;11.70;69.20
27114;DHT22;14648;49.730;8.614;2023-11-21T15:39:38;11.70;68.50
27114;DHT22;14648;49.730;8.614;2023-11-21T15:42:05;11.60;68.30
27114;DHT22;14648;49.730;8.614;2023-11-21T15:44:32;11.60;68.30
27114;DHT22;14648;49.730;8.614;2023-11-21T15:46:58;11.60;68.30
27114;DHT22;14648;49.730;8.614;2023-11-21T15:49:25;11.60;68.40
27114;DHT22;14648;49.730;8.614;2023-11-21T15:51:53;11.60;68.30